TimeEST,TemperatureF,Dew PointF,Humidity,Sea Level PressureIn,VisibilityMPH,Wind Direction,Wind SpeedMPH,Gust SpeedMPH,PrecipitationIn,Events,Conditions,WindDirDegrees,DateUTC
12:00 AM,33.8,21.2,60,30.06,25.0,NNW,6.9,-,N/A,,Overcast,330,2012-11-05 05:00:00
1:00 AM,32.0,19.4,60,30.06,25.0,NNW,8.1,-,N/A,,Mostly Cloudy,330,2012-11-05 06:00:00
2:00 AM,30.2,17.6,60,30.06,25.0,NW,9.2,-,N/A,,Mostly Cloudy,320,2012-11-05 07:00:00
3:00 AM,28.4,19.4,69,30.07,25.0,NW,5.8,-,N/A,,Mostly Cloudy,310,2012-11-05 08:00:00
4:00 AM,30.2,21.2,69,30.07,25.0,NW,4.6,-,N/A,,Mostly Cloudy,310,2012-11-05 09:00:00
5:00 AM,30.2,23.0,75,30.08,25.0,West,4.6,-,N/A,,Mostly Cloudy,280,2012-11-05 10:00:00
6:00 AM,28.4,21.2,74,30.09,25.0,NW,6.9,-,N/A,,Partly Cloudy,320,2012-11-05 11:00:00
7:00 AM,26.6,21.2,80,30.10,45.0,NW,5.8,-,N/A,,Partly Cloudy,320,2012-11-05 12:00:00
8:00 AM,30.2,21.2,69,30.10,35.0,NW,5.8,-,N/A,,Partly Cloudy,310,2012-11-05 13:00:00
9:00 AM,32.0,19.4,60,30.11,40.0,North,11.5,-,N/A,,Scattered Clouds,350,2012-11-05 14:00:00
10:00 AM,33.8,17.6,52,30.11,45.0,NNW,10.4,-,N/A,,Partly Cloudy,340,2012-11-05 15:00:00
11:00 AM,33.8,17.6,52,30.11,45.0,NNW,10.4,17.3,N/A,,Mostly Cloudy,330,2012-11-05 16:00:00
12:00 PM,33.8,15.8,48,30.10,45.0,WNW,5.8,-,N/A,,Mostly Cloudy,290,2012-11-05 17:00:00
1:00 PM,33.8,17.6,52,30.10,45.0,NW,8.1,-,N/A,,Overcast,320,2012-11-05 18:00:00
1:09 PM,33.8,17.6,52,30.10,40.0,NNW,6.9,-,N/A,Snow,Light Snow Showers,340,2012-11-05 18:09:00
2:00 PM,33.8,19.4,56,30.09,45.0,NW,6.9,-,N/A,Snow,Light Snow Showers,310,2012-11-05 19:00:00
3:00 PM,33.8,19.4,56,30.10,35.0,WNW,9.2,-,N/A,Snow,Light Snow Showers,300,2012-11-05 20:00:00
4:00 PM,33.8,15.8,48,30.11,35.0,WNW,8.1,-,N/A,Snow,Light Snow Showers,300,2012-11-05 21:00:00
5:00 PM,32.0,15.8,51,30.12,25.0,WNW,6.9,-,N/A,Snow,Light Snow Showers,300,2012-11-05 22:00:00
6:00 PM,30.2,12.2,47,30.15,25.0,WNW,6.9,18.4,N/A,,Mostly Cloudy,300,2012-11-05 23:00:00
7:00 PM,30.2,14.0,51,30.15,25.0,WNW,2.3,-,N/A,Snow,Light Snow Showers,300,2012-11-06 00:00:00
8:00 PM,30.2,14.0,51,30.16,25.0,WNW,4.6,-,N/A,,Overcast,290,2012-11-06 01:00:00
9:00 PM,28.4,14.0,55,30.17,25.0,NW,5.8,-,N/A,,Scattered Clouds,310,2012-11-06 02:00:00
10:00 PM,28.4,12.2,51,30.17,25.0,WNW,4.6,-,N/A,,Scattered Clouds,300,2012-11-06 03:00:00
11:00 PM,26.6,12.2,55,30.17,25.0,NW,5.8,-,N/A,,Partly Cloudy,310,2012-11-06 04:00:00